createdAt,value
2022-12-24T00:00:03.060Z,23.1
2022-12-24T00:05:15.779Z,23.1
2022-12-24T00:10:53.619Z,23.1
2022-12-24T00:16:32.385Z,23.1
2022-12-24T00:21:56.542Z,23.1
2022-12-24T00:27:19.594Z,23.1
2022-12-24T00:32:43.453Z,23.1
2022-12-24T00:38:27.948Z,23.2
2022-12-24T00:44:05.568Z,23.1
2022-12-24T00:49:48.174Z,23.1
2022-12-24T00:55:25.549Z,23.2
2022-12-24T01:01:03.427Z,23.2
2022-12-24T01:06:28.362Z,23.2
2022-12-24T01:12:05.749Z,23.2
2022-12-24T01:17:44.239Z,23.2
2022-12-24T01:23:22.135Z,23.2
2022-12-24T01:28:59.990Z,23.3
2022-12-24T01:34:38.929Z,23.3
2022-12-24T01:39:30.997Z,23.3
2022-12-24T01:44:58.449Z,23.3
2022-12-24T01:50:21.274Z,23.3
2022-12-24T01:55:43.557Z,23.3
2022-12-24T02:01:21.593Z,23.3
2022-12-24T02:07:01.190Z,23.3
2022-12-24T02:12:39.296Z,23.3
2022-12-24T02:17:47.040Z,23.3
2022-12-24T02:23:09.406Z,23.3
2022-12-24T02:28:47.863Z,23.3
2022-12-24T02:34:25.276Z,23.3
2022-12-24T02:39:31.880Z,23.3
2022-12-24T02:45:32.697Z,23.3
2022-12-24T02:51:17.118Z,23.3
2022-12-24T02:56:54.775Z,23.3
2022-12-24T03:02:18.777Z,23.3
2022-12-24T03:07:25.879Z,23.3
2022-12-24T03:13:03.322Z,23.3
2022-12-24T03:18:26.859Z,23.4
2022-12-24T03:24:05.242Z,23.3
2022-12-24T03:29:42.978Z,23.3
2022-12-24T03:35:06.024Z,23.3
2022-12-24T03:40:43.499Z,23.3
2022-12-24T03:46:21.740Z,23.3
2022-12-24T03:51:59.805Z,23.3
2022-12-24T03:57:37.041Z,23.3
2022-12-24T04:02:59.622Z,23.3
2022-12-24T04:08:23.025Z,23.3
2022-12-24T04:14:02.200Z,23.3
2022-12-24T04:19:40.525Z,23.4
2022-12-24T04:25:18.781Z,23.3
2022-12-24T04:30:56.407Z,23.3
2022-12-24T04:36:19.342Z,23.3
2022-12-24T04:41:45.925Z,23.3
2022-12-24T04:46:53.134Z,23.3
2022-12-24T04:52:31.826Z,23.3
2022-12-24T04:57:38.904Z,23.3
2022-12-24T05:03:33.098Z,23.3
2022-12-24T05:09:26.089Z,23.3
2022-12-24T05:15:12.047Z,23.3
2022-12-24T05:20:49.636Z,23.3
2022-12-24T05:26:27.358Z,23.3
2022-12-24T05:37:14.439Z,23.3
2022-12-24T05:42:57.018Z,23.3
2022-12-24T05:48:21.878Z,23.3
2022-12-24T05:54:00.706Z,23.3
2022-12-24T05:59:23.215Z,23.2
2022-12-24T06:05:07.294Z,23.3
2022-12-24T06:10:30.209Z,23.3
2022-12-24T06:16:13.725Z,23.3
2022-12-24T06:21:52.509Z,23.3
2022-12-24T06:27:15.159Z,23.3
2022-12-24T06:33:01.827Z,23.3
2022-12-24T06:38:40.212Z,23.3
2022-12-24T06:44:18.443Z,23.3
2022-12-24T06:49:56.765Z,23.3
2022-12-24T06:55:35.349Z,23.3
2022-12-24T07:01:03.364Z,23.2
2022-12-24T07:06:42.853Z,23.3
2022-12-24T07:12:22.385Z,23.2
2022-12-24T07:18:08.163Z,23
2022-12-24T07:23:47.222Z,22.9
2022-12-24T07:29:25.534Z,23
2022-12-24T07:35:18.351Z,23.1
2022-12-24T07:40:59.921Z,23.1
2022-12-24T07:46:45.779Z,23.1
2022-12-24T07:52:23.927Z,23.2
2022-12-24T07:58:03.001Z,23.2
2022-12-24T08:03:47.456Z,23.2
2022-12-24T08:09:26.090Z,23.2
2022-12-24T08:15:03.830Z,23.2
2022-12-24T08:20:42.747Z,23.1
2022-12-24T08:26:20.740Z,23.1
2022-12-24T08:32:06.009Z,23.2
2022-12-24T08:37:43.874Z,23.2
2022-12-24T08:43:22.814Z,23.1
2022-12-24T08:49:06.122Z,23.1
2022-12-24T08:54:44.244Z,23.1
2022-12-24T09:00:27.521Z,23.1
2022-12-24T09:06:12.816Z,23.1
2022-12-24T09:11:55.789Z,23.1
2022-12-24T09:17:39.827Z,23.1
2022-12-24T09:23:22.754Z,23.1
2022-12-24T09:28:45.688Z,23.1
2022-12-24T09:34:08.580Z,23.1
2022-12-24T09:39:52.106Z,23.1
2022-12-24T09:45:19.759Z,23
2022-12-24T09:51:01.669Z,23
2022-12-24T09:56:24.819Z,23
2022-12-24T10:01:48.099Z,23
2022-12-24T10:07:27.509Z,23
2022-12-24T10:13:11.188Z,23
2022-12-24T10:18:33.940Z,23
2022-12-24T10:24:12.202Z,23
2022-12-24T10:29:54.264Z,23
2022-12-24T10:35:38.576Z,23
2022-12-24T10:41:16.904Z,23
2022-12-24T10:46:49.847Z,23
2022-12-24T10:52:32.154Z,22.9
2022-12-24T10:58:10.325Z,23
2022-12-24T11:03:52.050Z,22.9
2022-12-24T11:09:18.028Z,22.9
2022-12-24T11:15:36.906Z,22.9
2022-12-24T11:21:22.552Z,22.9
2022-12-24T11:27:08.176Z,22.9
2022-12-24T11:32:51.745Z,22.9
2022-12-24T11:38:29.974Z,22.9
2022-12-24T11:44:09.740Z,22.9
2022-12-24T11:49:48.418Z,22.9
2022-12-24T11:55:50.036Z,22.9
2022-12-24T12:01:36.672Z,22.9
2022-12-24T12:06:59.638Z,22.9
2022-12-24T12:12:36.898Z,22.9
2022-12-24T12:18:20.092Z,22.9
2022-12-24T12:24:03.078Z,22.9
2022-12-24T12:29:41.713Z,22.9
2022-12-24T12:35:27.573Z,22.9
2022-12-24T12:41:12.597Z,22.9
2022-12-24T12:46:40.714Z,22.9
2022-12-24T12:52:27.387Z,22.9
2022-12-24T12:58:09.456Z,22.9
2022-12-24T13:03:52.226Z,22.8
2022-12-24T13:09:22.789Z,22.9
2022-12-24T13:15:05.318Z,22.9
2022-12-24T13:20:49.484Z,22.8
2022-12-24T13:26:34.942Z,22.9
2022-12-24T13:32:14.143Z,22.8
2022-12-24T13:37:56.306Z,22.8
2022-12-24T13:43:56.394Z,22.8
2022-12-24T13:49:19.237Z,22.8
2022-12-24T13:55:00.872Z,22.8
2022-12-24T14:00:46.024Z,22.8
2022-12-24T14:06:32.185Z,22.8
2022-12-24T14:11:59.637Z,22.8
2022-12-24T14:17:39.077Z,22.8
2022-12-24T14:23:19.055Z,22.8
2022-12-24T14:28:57.688Z,22.8
2022-12-24T14:34:36.130Z,22.8
2022-12-24T14:39:59.220Z,22.8
2022-12-24T14:45:41.809Z,22.8
2022-12-24T14:51:20.190Z,22.8
2022-12-24T14:57:36.468Z,22.7
2022-12-24T15:03:50.015Z,22.7
2022-12-24T15:09:33.035Z,22.7
2022-12-24T15:15:11.391Z,22.7
2022-12-24T15:20:25.000Z,22.7
2022-12-24T15:25:53.020Z,22.7
2022-12-24T15:31:38.902Z,22.7
2022-12-24T15:37:16.957Z,22.7
2022-12-24T15:42:39.805Z,22.7
2022-12-24T15:47:48.791Z,22.6
2022-12-24T15:53:18.425Z,22.6
2022-12-24T15:58:34.041Z,22.6
2022-12-24T16:03:43.594Z,22.6
2022-12-24T16:09:06.653Z,22.6
2022-12-24T16:14:21.275Z,22.6
2022-12-24T16:20:02.198Z,22.6
2022-12-24T16:25:40.738Z,22.6
2022-12-24T16:31:22.962Z,22.6
2022-12-24T16:37:00.980Z,22.6
2022-12-24T16:42:30.453Z,22.6
2022-12-24T16:48:11.759Z,22.6
2022-12-24T16:53:55.831Z,22.6
2022-12-24T16:59:03.320Z,22.5
